ESCF/LPI METAR and TAF weather

Enter ICAO airport designator
Station Type Date Time Source
ESCF METAR 2020/02/27 13:20 UTC NOAA

ESCF 271320Z 32005KT 2000 -SN VV019 M02/M03 Q0996


Station Type Date Time Source
ESCF Decoded METAR 2020/02/27 13:20 UTC NOAA

Linkoping / Malmen, Sweden (ESCF) 58-24N 015-31E 117M
Feb 27, 2020 - 08:20 AM EST / 2020.02.27 1320 UTC
Wind: from the NW (320 degrees) at 6 MPH (5 KT):0
Visibility: 1 mile(s):0
Sky conditions: obscured
Weather: light snow
Temperature: 28 F (-2 C)
Windchill: 21 F (-6 C):1
Dew Point: 26 F (-3 C)
Relative Humidity: 92%
Pressure (altimeter): 29.41 in. Hg (0996 hPa)
ob: ESCF 271320Z 32005KT 2000 -SN VV019 M02/M03 Q0996
cycle: 13

Station Type Date Time Source
ESCF TAF UTC NOAA

Error!

Example: see airport list